Time;durP1;ratioP1;P1;durP2;ratioP2;P2;SDS_P1;SDS_P2;PMS_P1;PMS_P2;Temp;Humidity;BMP_temperature;BMP_pressure;BME280_temperature;BME280_humidity;BME280_pressure;Samples;Min_cycle;Max_cycle;Signal;HPM_P1;HPM_P2
2021/07/14 03:23:50;;;;;;;15.43;14.73;;;14.80;99.90;;;;;;4971426;28;20508;-70
2021/07/14 03:26:18;;;;;;;16.03;15.07;;;14.80;99.90;;;;;;4967673;28;20479;-70
2021/07/14 03:28:45;;;;;;;16.77;15.77;;;14.80;99.90;;;;;;4960244;28;20456;-70
2021/07/14 03:31:13;;;;;;;15.10;14.20;;;14.90;99.90;;;;;;4953468;29;20456;-69
2021/07/14 03:33:40;;;;;;;14.73;13.73;;;14.90;99.90;;;;;;4964694;28;20474;-69
2021/07/14 03:36:08;;;;;;;15.00;14.00;;;15.00;99.90;;;;;;4953367;29;20452;-69
2021/07/14 03:38:36;;;;;;;16.37;15.33;;;14.90;99.90;;;;;;4953683;29;20845;-69
2021/07/14 03:41:05;;;;;;;14.77;14.17;;;15.00;99.90;;;;;;4953628;29;20543;-69
2021/07/14 03:43:34;;;;;;;14.33;13.73;;;15.00;99.90;;;;;;4953529;29;20453;-69
2021/07/14 03:46:02;;;;;;;14.77;13.90;;;15.00;99.90;;;;;;4953427;29;20520;-69
2021/07/14 03:48:32;;;;;;;14.67;13.90;;;15.00;99.90;;;;;;4953521;29;20456;-69
2021/07/14 03:51:00;;;;;;;14.43;13.73;;;15.00;99.90;;;;;;4953314;29;20969;-69
2021/07/14 03:53:27;;;;;;;14.33;13.73;;;15.00;99.90;;;;;;4952875;28;20453;-70
2021/07/14 03:55:54;;;;;;;15.50;14.10;;;15.00;99.90;;;;;;4952492;29;20943;-70
2021/07/14 03:58:25;;;;;;;14.93;14.00;;;15.10;99.90;;;;;;4952923;29;20476;-70
2021/07/14 04:00:53;;;;;;;14.80;14.10;;;15.10;99.90;;;;;;4952888;29;20467;-70
2021/07/14 04:03:24;;;;;;;16.13;15.40;;;15.20;99.90;;;;;;4952944;29;20456;-70
2021/07/14 04:05:55;;;;;;;13.87;13.17;;;15.20;99.90;;;;;;4953339;29;21010;-70
2021/07/14 04:08:26;;;;;;;14.07;13.40;;;15.20;99.90;;;;;;4953020;29;20456;-70
2021/07/14 04:10:53;;;;;;;13.00;12.40;;;15.20;99.90;;;;;;4952916;29;20459;-69
2021/07/14 04:13:19;;;;;;;13.87;13.07;;;15.20;99.90;;;;;;4953120;29;20448;-69
2021/07/14 04:15:47;;;;;;;14.23;13.47;;;15.20;99.90;;;;;;4953007;29;20460;-69
2021/07/14 04:18:14;;;;;;;14.27;13.60;;;15.30;99.90;;;;;;4952895;29;20499;-69
2021/07/14 04:20:42;;;;;;;15.90;14.67;;;15.20;99.90;;;;;;4952636;28;20481;-70
2021/07/14 04:23:09;;;;;;;13.53;12.83;;;15.30;99.90;;;;;;4952231;29;20572;-69
2021/07/14 04:25:36;;;;;;;14.03;13.23;;;15.30;99.90;;;;;;4952871;29;20456;-71
2021/07/14 04:28:03;;;;;;;14.40;13.60;;;15.20;99.90;;;;;;4952896;29;20449;-70
2021/07/14 04:30:30;;;;;;;13.87;12.90;;;15.20;99.90;;;;;;4952812;29;20452;-70
2021/07/14 04:32:58;;;;;;;14.80;13.90;;;15.20;99.90;;;;;;4954813;28;20856;-71
2021/07/14 04:35:25;;;;;;;14.50;13.60;;;15.30;99.90;;;;;;4953182;28;20460;-70
2021/07/14 04:37:52;;;;;;;15.57;14.67;;;15.30;99.90;;;;;;4952395;29;20484;-71
2021/07/14 04:40:22;;;;;;;15.27;14.23;;;15.40;99.90;;;;;;4952568;29;20461;-71
2021/07/14 04:42:49;;;;;;;15.13;14.20;;;15.40;99.90;;;;;;4952444;29;20954;-69
2021/07/14 04:45:16;;;;;;;14.50;13.37;;;15.40;99.90;;;;;;4952356;29;20464;-69
2021/07/14 04:47:42;;;;;;;14.03;13.20;;;15.40;99.90;;;;;;4952179;29;20472;-69
2021/07/14 04:50:11;;;;;;;14.87;13.97;;;15.60;99.90;;;;;;4951808;29;20471;-69
2021/07/14 04:52:38;;;;;;;14.27;13.47;;;15.60;99.90;;;;;;4952330;29;20464;-70
2021/07/14 04:55:06;;;;;;;14.30;13.60;;;15.60;99.90;;;;;;4952314;29;20815;-69
2021/07/14 04:57:32;;;;;;;12.53;11.93;;;15.70;99.90;;;;;;4952385;29;20488;-71
2021/07/14 04:59:59;;;;;;;13.30;12.60;;;15.80;99.90;;;;;;4952209;29;20456;-71
2021/07/14 05:02:26;;;;;;;14.27;13.40;;;15.80;99.90;;;;;;4951913;29;20463;-70
2021/07/14 05:04:52;;;;;;;14.73;13.73;;;15.80;99.90;;;;;;4951882;28;20459;-71
2021/07/14 05:07:23;;;;;;;13.77;12.97;;;16.00;99.90;;;;;;4952170;29;20464;-69
2021/07/14 05:09:50;;;;;;;14.70;13.90;;;16.00;99.90;;;;;;4951879;29;20831;-69
2021/07/14 05:12:16;;;;;;;15.23;14.33;;;15.90;99.90;;;;;;4952306;29;20964;-69
2021/07/14 05:14:43;;;;;;;15.47;14.33;;;15.80;99.90;;;;;;4951668;29;20950;-70
2021/07/14 05:17:10;;;;;;;22.73;15.30;;;15.80;99.90;;;;;;4951763;29;20467;-72
2021/07/14 05:19:36;;;;;;;16.10;15.03;;;15.80;99.90;;;;;;4951731;28;20468;-70
2021/07/14 05:22:04;;;;;;;15.30;14.20;;;16.00;99.90;;;;;;4951964;29;20456;-70
2021/07/14 05:24:31;;;;;;;14.77;13.77;;;16.10;99.90;;;;;;4952008;29;20449;-71
2021/07/14 05:26:58;;;;;;;16.33;14.93;;;16.20;99.90;;;;;;4951871;29;20479;-71
2021/07/14 05:29:25;;;;;;;13.50;13.00;;;16.30;99.90;;;;;;4951632;29;20479;-71
2021/07/14 05:31:51;;;;;;;13.53;12.83;;;16.40;99.90;;;;;;4951751;29;20452;-71
2021/07/14 05:34:18;;;;;;;14.20;13.30;;;16.40;99.90;;;;;;4952030;29;20457;-69
2021/07/14 05:36:45;;;;;;;14.30;13.50;;;16.40;99.90;;;;;;4951763;29;20452;-70
2021/07/14 05:39:11;;;;;;;14.07;13.43;;;16.40;99.90;;;;;;4951816;29;20523;-70
2021/07/14 05:41:39;;;;;;;14.67;13.77;;;16.40;99.90;;;;;;4951845;29;20453;-70
2021/07/14 05:44:06;;;;;;;14.33;13.50;;;16.40;99.90;;;;;;4951343;29;20981;-70
2021/07/14 05:46:34;;;;;;;14.63;13.53;;;16.40;99.90;;;;;;4951744;29;20457;-70
2021/07/14 05:49:03;;;;;;;13.63;12.60;;;16.40;99.90;;;;;;4951804;29;20801;-69
2021/07/14 05:51:29;;;;;;;15.20;14.30;;;16.40;99.90;;;;;;4951676;29;20516;-70
2021/07/14 05:53:56;;;;;;;14.70;14.10;;;16.40;99.90;;;;;;4951497;29;20460;-70
2021/07/14 05:56:23;;;;;;;16.30;15.20;;;16.30;99.90;;;;;;4950998;29;20452;-69
2021/07/14 05:58:51;;;;;;;14.20;13.30;;;16.40;99.90;;;;;;4951255;29;20486;-69
2021/07/14 06:01:18;;;;;;;14.90;14.10;;;16.40;99.90;;;;;;4951546;29;20456;-70
2021/07/14 06:03:44;;;;;;;13.83;13.03;;;16.30;99.90;;;;;;4951923;29;20457;-69
2021/07/14 06:06:11;;;;;;;14.80;14.00;;;16.40;99.90;;;;;;4951379;29;20464;-70
2021/07/14 06:08:37;;;;;;;14.33;13.17;;;16.30;99.90;;;;;;4951195;29;20456;-70
2021/07/14 06:11:04;;;;;;;14.30;13.70;;;16.30;99.90;;;;;;4951518;29;20463;-70
2021/07/14 06:13:31;;;;;;;15.50;14.47;;;16.50;99.90;;;;;;4951468;29;20970;-70
2021/07/14 06:15:59;;;;;;;14.40;13.67;;;16.60;99.90;;;;;;4951177;29;20460;-70
2021/07/14 06:18:26;;;;;;;15.17;14.33;;;16.60;99.90;;;;;;4953583;28;20869;-70
2021/07/14 06:20:52;;;;;;;14.00;13.30;;;16.50;99.90;;;;;;4954803;28;20480;-72
2021/07/14 06:23:19;;;;;;;14.57;13.50;;;16.60;99.90;;;;;;4954672;29;20480;-71
2021/07/14 06:25:46;;;;;;;15.63;14.70;;;16.60;99.90;;;;;;4955038;29;20823;-70
2021/07/14 06:28:13;;;;;;;15.47;14.13;;;16.60;99.90;;;;;;4955097;28;20464;-71
2021/07/14 06:30:40;;;;;;;14.13;13.47;;;16.70;99.90;;;;;;4954632;29;20519;-69
2021/07/14 06:33:09;;;;;;;15.23;14.30;;;16.50;99.90;;;;;;4952908;29;20449;-70
2021/07/14 06:35:36;;;;;;;14.90;14.30;;;16.60;99.90;;;;;;4954780;29;20467;-69
2021/07/14 06:38:30;;;;;;;13.17;12.47;;;16.70;99.90;;;;;;4954959;29;20484;-69
2021/07/14 06:40:57;;;;;;;15.07;14.20;;;16.60;99.90;;;;;;4948736;29;20488;-70
2021/07/14 06:43:31;;;;;;;14.17;13.57;;;16.50;99.90;;;;;;4953734;28;20666;-70
2021/07/14 06:45:58;;;;;;;13.83;13.23;;;16.70;99.90;;;;;;4953125;29;20452;-70
2021/07/14 06:48:26;;;;;;;15.20;14.20;;;16.80;99.90;;;;;;4955018;29;20444;-70
2021/07/14 06:50:53;;;;;;;14.07;13.27;;;16.90;99.90;;;;;;4954952;29;20448;-70
2021/07/14 06:53:19;;;;;;;14.90;14.00;;;17.00;99.90;;;;;;4954902;29;20471;-69
2021/07/14 06:55:46;;;;;;;15.27;13.97;;;17.10;99.90;;;;;;4954911;28;20483;-70
2021/07/14 06:58:13;;;;;;;14.50;13.70;;;17.20;99.90;;;;;;4954636;29;20511;-70
2021/07/14 07:00:39;;;;;;;14.80;14.10;;;17.20;99.90;;;;;;4954720;29;20483;-72
2021/07/14 07:03:06;;;;;;;14.83;14.03;;;17.00;99.90;;;;;;4954727;29;20503;-72
2021/07/14 07:05:34;;;;;;;14.67;13.90;;;17.20;99.90;;;;;;4953016;29;20475;-71
2021/07/14 07:08:00;;;;;;;14.07;13.47;;;17.20;99.90;;;;;;4954715;29;20453;-72
2021/07/14 07:10:28;;;;;;;14.40;13.60;;;17.10;99.90;;;;;;4954552;29;20457;-71
2021/07/14 07:12:54;;;;;;;14.33;13.43;;;17.20;99.90;;;;;;4954411;29;20457;-71
2021/07/14 07:15:21;;;;;;;14.90;14.20;;;17.20;99.90;;;;;;4954141;29;20448;-71
2021/07/14 07:17:48;;;;;;;13.57;12.80;;;17.10;99.90;;;;;;4954589;29;20460;-71
2021/07/14 07:20:16;;;;;;;13.93;13.03;;;17.00;99.90;;;;;;4954350;28;20476;-72
2021/07/14 07:22:45;;;;;;;14.07;13.13;;;17.10;99.90;;;;;;4953955;29;20548;-71
2021/07/14 07:25:13;;;;;;;14.07;13.27;;;17.20;99.90;;;;;;4954053;29;20457;-72
2021/07/14 07:27:41;;;;;;;14.20;13.10;;;17.20;99.90;;;;;;4954255;29;20727;-71
2021/07/14 07:30:09;;;;;;;15.20;13.13;;;17.20;99.90;;;;;;4954189;28;20531;-72
2021/07/14 07:32:36;;;;;;;13.50;12.60;;;17.20;99.90;;;;;;4953981;29;20449;-71
2021/07/14 07:35:04;;;;;;;13.80;13.20;;;17.20;99.90;;;;;;4954080;29;20934;-72
2021/07/14 07:37:31;;;;;;;13.70;13.00;;;17.30;99.90;;;;;;4954113;29;20843;-72
2021/07/14 07:39:59;;;;;;;13.50;12.60;;;17.40;99.90;;;;;;4953887;29;20484;-72
2021/07/14 07:42:26;;;;;;;13.53;12.57;;;17.30;99.90;;;;;;4953887;29;20457;-71
2021/07/14 07:44:53;;;;;;;15.33;14.53;;;17.50;99.90;;;;;;4953672;29;20452;-71
2021/07/14 07:47:20;;;;;;;13.97;13.30;;;17.50;99.90;;;;;;4953598;29;20456;-71
2021/07/14 07:49:47;;;;;;;15.50;14.37;;;17.60;99.90;;;;;;4953883;29;20801;-71
2021/07/14 07:52:14;;;;;;;14.63;13.93;;;17.60;99.90;;;;;;4953410;29;20455;-71
2021/07/14 07:54:41;;;;;;;16.03;15.13;;;17.50;99.90;;;;;;4953400;29;20463;-71
2021/07/14 07:57:09;;;;;;;15.40;14.40;;;17.50;99.90;;;;;;4953231;29;20947;-71
2021/07/14 07:59:36;;;;;;;14.67;13.97;;;17.60;99.90;;;;;;4953142;29;20488;-71
2021/07/14 08:02:04;;;;;;;15.60;14.60;;;17.70;99.90;;;;;;4953484;29;20457;-71
2021/07/14 08:04:31;;;;;;;13.07;12.37;;;17.80;99.90;;;;;;4953383;29;20461;-71
2021/07/14 08:06:58;;;;;;;14.70;13.90;;;17.70;99.90;;;;;;4953149;29;20942;-71
2021/07/14 08:09:25;;;;;;;16.30;15.13;;;17.80;99.90;;;;;;4953359;29;20453;-71
2021/07/14 08:11:52;;;;;;;15.17;14.43;;;17.80;99.90;;;;;;4953116;29;20452;-71
2021/07/14 08:14:20;;;;;;;16.50;15.50;;;17.70;99.90;;;;;;4953517;29;20546;-71
2021/07/14 08:16:47;;;;;;;15.87;15.07;;;17.60;99.90;;;;;;4953335;29;20448;-71
2021/07/14 08:19:14;;;;;;;15.10;14.40;;;17.60;99.90;;;;;;4953038;28;20492;-71
2021/07/14 08:21:41;;;;;;;14.50;13.80;;;17.40;99.90;;;;;;4952845;29;20722;-71
2021/07/14 08:24:08;;;;;;;15.23;14.50;;;17.30;99.90;;;;;;4952679;29;20527;-71
2021/07/14 08:26:35;;;;;;;14.93;14.23;;;17.20;99.90;;;;;;4952840;28;20798;-71
2021/07/14 08:29:02;;;;;;;14.73;14.03;;;17.30;99.90;;;;;;4953134;29;20456;-71
2021/07/14 08:31:30;;;;;;;15.43;14.30;;;17.50;99.90;;;;;;4953108;29;20488;-72
2021/07/14 08:33:57;;;;;;;15.20;14.40;;;17.50;99.90;;;;;;4959318;28;20486;-71
2021/07/14 08:36:23;;;;;;;15.10;14.10;;;17.50;99.90;;;;;;4972076;28;20867;-71
2021/07/14 08:38:50;;;;;;;15.30;14.20;;;17.50;99.90;;;;;;4972094;28;21005;-71
2021/07/14 08:41:21;;;;;;;15.47;14.57;;;17.60;99.90;;;;;;4971859;28;20850;-71
2021/07/14 08:43:49;;;;;;;14.00;13.10;;;17.60;99.90;;;;;;4972539;28;20988;-71
2021/07/14 08:46:15;;;;;;;17.20;15.57;;;17.70;99.90;;;;;;4972389;28;20460;-71
2021/07/14 08:48:45;;;;;;;15.20;14.30;;;17.70;99.90;;;;;;4972239;28;20952;-71
2021/07/14 08:51:14;;;;;;;14.67;13.87;;;17.70;99.90;;;;;;4971732;28;20863;-71
2021/07/14 08:53:41;;;;;;;15.13;14.20;;;17.60;99.90;;;;;;4972216;28;20662;-71
2021/07/14 08:56:08;;;;;;;16.07;15.17;;;17.60;99.90;;;;;;4972021;28;20456;-71
2021/07/14 08:58:35;;;;;;;15.70;14.90;;;17.70;99.90;;;;;;4972285;28;20460;-71
2021/07/14 09:01:02;;;;;;;15.47;14.70;;;17.60;99.90;;;;;;4971943;28;20815;-71
2021/07/14 09:03:30;;;;;;;15.40;14.80;;;17.80;99.90;;;;;;4971794;28;20455;-72
2021/07/14 09:05:58;;;;;;;14.83;14.23;;;17.90;99.90;;;;;;4971617;28;20474;-71
2021/07/14 09:08:25;;;;;;;15.20;14.50;;;18.00;99.90;;;;;;4971586;28;20676;-71
2021/07/14 09:10:52;;;;;;;15.17;14.37;;;18.20;99.90;;;;;;4971418;28;20455;-71
2021/07/14 09:13:19;;;;;;;16.43;15.43;;;18.40;99.90;;;;;;4971323;28;20466;-71
2021/07/14 09:15:49;;;;;;;16.53;15.70;;;18.60;99.90;;;;;;4971537;28;20478;-71
2021/07/14 09:18:20;;;;;;;14.80;14.20;;;18.80;99.90;;;;;;4971663;28;20505;-72
2021/07/14 09:20:47;;;;;;;15.53;14.73;;;18.90;99.90;;;;;;4971388;28;20487;-71
2021/07/14 09:23:17;;;;;;;16.93;15.90;;;19.00;99.90;;;;;;4971286;28;20491;-71
2021/07/14 09:25:46;;;;;;;15.30;14.50;;;19.10;99.90;;;;;;4971403;28;20486;-71
2021/07/14 09:28:17;;;;;;;16.17;15.30;;;19.10;99.90;;;;;;4971026;28;20459;-71
2021/07/14 09:30:46;;;;;;;14.40;13.70;;;19.30;99.90;;;;;;4971839;28;20451;-71
2021/07/14 09:33:14;;;;;;;17.30;14.87;;;19.40;99.90;;;;;;4970853;28;20470;-71
2021/07/14 09:35:42;;;;;;;14.97;14.17;;;19.70;99.90;;;;;;4971586;28;20455;-71
2021/07/14 09:38:11;;;;;;;13.83;13.10;;;19.90;99.90;;;;;;4971515;28;20518;-71
2021/07/14 09:40:40;;;;;;;14.47;13.73;;;19.90;99.90;;;;;;4971412;28;20490;-71
2021/07/14 09:43:10;;;;;;;14.90;14.20;;;19.80;99.90;;;;;;4971297;28;20451;-71
2021/07/14 09:45:45;;;;;;;15.43;14.73;;;19.80;99.90;;;;;;4971486;28;20467;-71
2021/07/14 09:48:13;;;;;;;14.70;14.00;;;19.80;99.90;;;;;;4971550;28;20513;-72
2021/07/14 09:50:41;;;;;;;15.23;13.97;;;19.80;99.90;;;;;;4971414;28;20892;-71
2021/07/14 09:53:10;;;;;;;16.47;15.27;;;19.90;99.90;;;;;;4973322;28;20454;-71
2021/07/14 09:55:39;;;;;;;14.10;13.43;;;20.00;99.90;;;;;;4975218;28;20463;-71
2021/07/14 09:58:11;;;;;;;14.70;14.00;;;20.00;99.90;;;;;;4975228;28;20463;-71
2021/07/14 10:00:43;;;;;;;14.13;13.53;;;20.10;99.90;;;;;;4975362;28;21032;-71
2021/07/14 10:03:16;;;;;;;14.90;14.00;;;20.00;99.90;;;;;;4975291;28;20720;-72
2021/07/14 10:05:43;;;;;;;14.77;13.90;;;20.00;99.90;;;;;;4975234;28;20810;-71
2021/07/14 10:08:18;;;;;;;13.57;12.90;;;20.20;99.90;;;;;;4975147;28;20863;-71
2021/07/14 10:10:47;;;;;;;13.30;12.70;;;20.60;99.90;;;;;;4975262;28;20450;-71
2021/07/14 10:13:14;;;;;;;14.23;13.43;;;20.50;99.90;;;;;;4975287;28;20837;-71
2021/07/14 10:15:41;;;;;;;13.40;12.57;;;20.90;99.90;;;;;;4974948;28;20463;-71
2021/07/14 10:18:12;;;;;;;13.40;12.60;;;21.10;99.90;;;;;;4974840;28;20491;-71
2021/07/14 10:20:41;;;;;;;13.67;12.70;;;21.40;99.90;;;;;;4974612;28;20531;-72
2021/07/14 10:23:09;;;;;;;12.93;12.00;;;21.80;99.90;;;;;;4974618;28;20484;-71
2021/07/14 10:25:38;;;;;;;13.20;12.50;;;22.10;99.90;;;;;;4974833;28;20451;-71
2021/07/14 10:28:09;;;;;;;13.77;13.00;;;22.30;99.90;;;;;;4974704;28;20463;-71
2021/07/14 10:30:36;;;;;;;13.97;13.03;;;22.70;99.90;;;;;;4974881;28;20499;-71
2021/07/14 10:33:03;;;;;;;13.90;13.00;;;23.30;99.90;;;;;;4975088;28;20467;-71
2021/07/14 10:35:34;;;;;;;13.30;12.70;;;23.40;99.90;;;;;;4974541;28;20447;-71
2021/07/14 10:38:04;;;;;;;13.07;12.57;;;24.30;99.90;;;;;;4975041;28;20455;-71
2021/07/14 10:40:31;;;;;;;12.97;12.17;;;25.10;99.90;;;;;;4974764;28;20859;-71
2021/07/14 10:42:58;;;;;;;12.67;12.00;;;24.70;99.60;;;;;;4974540;28;20451;-72
2021/07/14 10:45:26;;;;;;;12.63;12.13;;;25.00;99.90;;;;;;4974621;28;20966;-71
2021/07/14 10:47:55;;;;;;;12.67;12.17;;;25.30;99.50;;;;;;4974409;28;20836;-72
2021/07/14 10:50:24;;;;;;;13.30;12.60;;;25.60;99.00;;;;;;4974229;28;20467;-71
2021/07/14 10:52:51;;;;;;;14.57;13.77;;;26.00;98.20;;;;;;4974160;28;20459;-70
2021/07/14 10:55:21;;;;;;;14.70;14.00;;;25.60;98.00;;;;;;4974356;28;20455;-69
2021/07/14 10:57:48;;;;;;;12.90;12.30;;;25.60;98.20;;;;;;4974219;28;20456;-71
2021/07/14 11:00:17;;;;;;;13.07;12.43;;;25.70;98.30;;;;;;4972482;28;20487;-71
2021/07/14 11:02:47;;;;;;;12.70;12.13;;;25.90;97.50;;;;;;4973878;28;20456;-71
2021/07/14 11:05:15;;;;;;;13.73;13.10;;;26.10;97.10;;;;;;4973666;28;20456;-71
2021/07/14 11:07:44;;;;;;;13.73;13.10;;;26.30;96.70;;;;;;4973761;28;20844;-69
2021/07/14 11:10:35;;;;;;;12.83;12.30;;;25.90;97.30;;;;;;4973598;28;20458;-71
2021/07/14 11:13:26;;;;;;;13.13;12.47;;;25.50;96.90;;;;;;4973577;28;20950;-69
2021/07/14 11:15:54;;;;;;;13.30;12.60;;;25.60;97.40;;;;;;4973521;28;20956;-72
2021/07/14 11:18:39;;;;;;;13.37;12.80;;;25.80;97.80;;;;;;4974054;28;20984;-72
2021/07/14 11:21:07;;;;;;;13.93;13.33;;;27.20;95.30;;;;;;4973973;28;20491;-70
2021/07/14 11:23:34;;;;;;;12.83;12.23;;;28.00;93.70;;;;;;4973899;28;20488;-70
2021/07/14 11:26:02;;;;;;;14.07;13.30;;;28.30;92.40;;;;;;4973840;28;20452;-70
2021/07/14 11:28:30;;;;;;;13.10;12.63;;;28.70;91.40;;;;;;4973643;28;20463;-70
2021/07/14 11:31:08;;;;;;;12.20;11.80;;;29.00;91.10;;;;;;4973458;28;20452;-70
2021/07/14 11:33:37;;;;;;;12.60;12.10;;;28.90;90.80;;;;;;4973721;28;20483;-72
2021/07/14 11:36:06;;;;;;;12.90;12.43;;;28.90;89.70;;;;;;4973511;28;20459;-72
2021/07/14 11:38:43;;;;;;;12.47;12.07;;;28.90;90.10;;;;;;4973555;28;20475;-72
2021/07/14 11:41:20;;;;;;;13.47;12.87;;;29.90;87.20;;;;;;4972994;28;21000;-71
2021/07/14 11:43:47;;;;;;;13.77;13.27;;;30.20;82.20;;;;;;4973385;28;20507;-72
2021/07/14 11:46:17;;;;;;;13.13;12.53;;;29.70;85.80;;;;;;4973011;28;20859;-72
2021/07/14 11:48:48;;;;;;;12.83;12.43;;;29.60;84.00;;;;;;4973159;28;20549;-71
2021/07/14 11:51:25;;;;;;;13.00;12.50;;;29.60;82.50;;;;;;4973347;28;20808;-72
2021/07/14 11:53:53;;;;;;;12.50;12.00;;;28.80;83.80;;;;;;4973029;28;20459;-71
2021/07/14 11:56:23;;;;;;;12.23;11.83;;;28.80;85.00;;;;;;4971165;28;20472;-71
2021/07/14 11:58:52;;;;;;;12.80;12.40;;;28.40;83.70;;;;;;4972992;28;20459;-71
2021/07/14 12:02:05;;;;;;;12.40;12.00;;;28.40;83.50;;;;;;4972597;28;20490;-71
2021/07/14 12:04:38;;;;;;;12.70;12.30;;;28.60;82.40;;;;;;4926894;28;20460;-71
2021/07/14 12:07:16;;;;;;;12.83;12.33;;;28.50;82.70;;;;;;4972516;28;20474;-71
2021/07/14 12:09:44;;;;;;;12.30;11.90;;;27.80;83.90;;;;;;4972172;28;20454;-71
2021/07/14 12:12:20;;;;;;;12.63;12.23;;;27.50;83.20;;;;;;4972341;28;20459;-71
2021/07/14 12:14:48;;;;;;;13.10;12.57;;;27.30;85.90;;;;;;4972097;28;20482;-71
2021/07/14 12:17:17;;;;;;;11.70;11.40;;;27.00;87.70;;;;;;4972527;28;20459;-71
2021/07/14 12:19:47;;;;;;;12.27;11.80;;;27.20;85.50;;;;;;4972405;28;20510;-71
2021/07/14 12:22:16;;;;;;;12.53;12.13;;;27.40;86.70;;;;;;4972337;28;21061;-71
2021/07/14 12:24:45;;;;;;;12.00;11.60;;;27.60;86.10;;;;;;4972554;28;20550;-71
2021/07/14 12:27:20;;;;;;;11.80;11.50;;;28.70;82.40;;;;;;4972294;28;20825;-71
2021/07/14 12:29:53;;;;;;;12.10;11.70;;;28.70;80.20;;;;;;4972532;28;20451;-71
2021/07/14 12:32:31;;;;;;;12.37;11.97;;;28.60;82.00;;;;;;4972291;28;20853;-71
2021/07/14 12:34:59;;;;;;;12.73;12.33;;;28.80;81.40;;;;;;4972104;28;20833;-72
2021/07/14 12:37:26;;;;;;;12.80;12.40;;;28.90;80.40;;;;;;4972250;28;20463;-72
2021/07/14 12:39:53;;;;;;;12.00;11.60;;;28.80;79.10;;;;;;4971922;28;20514;-71
2021/07/14 12:42:22;;;;;;;12.90;12.30;;;28.30;79.70;;;;;;4971997;28;20452;-71
2021/07/14 12:44:50;;;;;;;12.30;11.90;;;27.30;82.20;;;;;;4972216;28;20488;-71
2021/07/14 12:47:18;;;;;;;12.10;11.70;;;27.30;83.90;;;;;;4972299;28;20458;-71
2021/07/14 12:49:46;;;;;;;12.67;12.27;;;27.80;82.20;;;;;;4972059;28;20451;-71
2021/07/14 12:52:17;;;;;;;12.93;12.53;;;27.80;82.60;;;;;;4971808;28;20452;-71
2021/07/14 12:54:45;;;;;;;13.27;12.87;;;27.60;83.10;;;;;;4972290;28;20836;-71
2021/07/14 12:57:24;;;;;;;12.50;12.10;;;27.70;82.60;;;;;;4971822;28;20839;-71
2021/07/14 12:59:57;;;;;;;12.70;12.13;;;27.90;82.10;;;;;;4971680;28;20463;-71
2021/07/14 13:02:25;;;;;;;11.53;11.23;;;27.50;82.70;;;;;;4971722;28;20828;-70
2021/07/14 13:04:54;;;;;;;12.00;11.60;;;27.50;84.30;;;;;;4971533;28;20455;-71
2021/07/14 13:07:27;;;;;;;12.60;12.20;;;27.70;83.20;;;;;;4971709;28;20451;-71
2021/07/14 13:09:56;;;;;;;12.87;12.37;;;28.20;83.40;;;;;;4971289;28;20463;-71
2021/07/14 13:12:25;;;;;;;11.57;11.27;;;28.30;82.80;;;;;;4971450;28;20459;-71
2021/07/14 13:14:53;;;;;;;12.30;11.90;;;28.40;81.40;;;;;;4971420;28;20459;-71
2021/07/14 13:17:28;;;;;;;12.10;11.70;;;28.60;81.50;;;;;;4971588;28;20475;-71
2021/07/14 13:20:07;;;;;;;13.17;12.77;;;28.90;81.20;;;;;;4971245;28;20478;-71
2021/07/14 13:22:37;;;;;;;12.33;11.93;;;29.80;78.20;;;;;;4971637;28;20509;-71
2021/07/14 13:25:07;;;;;;;12.63;12.03;;;30.00;76.80;;;;;;4971554;28;20452;-71
2021/07/14 13:27:38;;;;;;;10.97;10.67;;;30.40;76.20;;;;;;4971467;28;20819;-71
2021/07/14 13:30:34;;;;;;;11.90;11.60;;;30.80;73.30;;;;;;4971593;28;20463;-72
2021/07/14 13:33:12;;;;;;;12.10;11.67;;;31.00;73.60;;;;;;4971517;28;20455;-71
2021/07/14 13:35:41;;;;;;;12.50;12.00;;;29.80;75.20;;;;;;4971346;28;20546;-71
2021/07/14 13:38:38;;;;;;;11.77;11.37;;;28.90;77.90;;;;;;4971275;28;20462;-71
2021/07/14 13:41:22;;;;;;;12.30;11.90;;;28.00;80.50;;;;;;4971301;28;20495;-71
2021/07/14 13:43:50;;;;;;;12.70;12.20;;;27.30;83.10;;;;;;4971553;28;20458;-71
2021/07/14 13:46:22;;;;;;;12.40;12.00;;;27.50;84.00;;;;;;4971457;28;20459;-71
2021/07/14 13:48:59;;;;;;;12.93;12.43;;;28.00;83.10;;;;;;4971088;28;20462;-70
2021/07/14 13:51:36;;;;;;;11.60;11.20;;;27.70;82.80;;;;;;4970981;28;20450;-71
2021/07/14 13:54:31;;;;;;;11.67;11.27;;;27.60;81.40;;;;;;4969351;28;20459;-71
2021/07/14 13:57:13;;;;;;;12.37;11.87;;;27.90;82.00;;;;;;4970890;28;20456;-71
2021/07/14 13:59:50;;;;;;;12.40;12.03;;;28.90;79.70;;;;;;4970927;28;20462;-71
2021/07/14 14:02:24;;;;;;;12.90;12.50;;;28.90;77.40;;;;;;4971228;28;20942;-71
2021/07/14 14:04:57;;;;;;;13.07;12.63;;;28.70;78.70;;;;;;4970958;28;20455;-71
2021/07/14 14:07:29;;;;;;;11.93;11.53;;;29.80;75.70;;;;;;4971074;28;20477;-72
2021/07/14 14:10:00;;;;;;;13.20;12.70;;;30.80;71.50;;;;;;4971015;28;20463;-71
2021/07/14 14:12:30;;;;;;;12.53;12.10;;;31.40;69.90;;;;;;4971107;28;20455;-71
2021/07/14 14:14:57;;;;;;;12.10;11.80;;;31.50;68.50;;;;;;4971436;28;20540;-71
2021/07/14 14:17:25;;;;;;;12.73;12.23;;;31.10;68.20;;;;;;4971075;28;20463;-71
2021/07/14 14:19:53;;;;;;;12.10;11.80;;;30.90;69.70;;;;;;4970754;28;20476;-70
2021/07/14 14:22:21;;;;;;;12.80;12.40;;;30.80;69.40;;;;;;4971024;28;20500;-70
2021/07/14 14:24:48;;;;;;;12.83;12.43;;;30.70;70.40;;;;;;4971207;28;20466;-71
2021/07/14 14:27:16;;;;;;;13.07;12.40;;;29.90;71.60;;;;;;4971151;28;20466;-71
2021/07/14 14:29:43;;;;;;;13.50;13.00;;;29.70;71.50;;;;;;4970852;28;20452;-71
2021/07/14 14:32:11;;;;;;;13.50;13.03;;;29.40;72.60;;;;;;4970969;28;20451;-71
2021/07/14 14:34:39;;;;;;;13.37;12.87;;;29.00;73.30;;;;;;4970937;28;20600;-71
2021/07/14 14:37:06;;;;;;;13.87;13.47;;;28.80;74.10;;;;;;4971319;28;20456;-71
2021/07/14 14:39:34;;;;;;;13.73;13.33;;;28.20;76.90;;;;;;4973564;28;20463;-74
2021/07/14 14:42:01;;;;;;;12.83;12.40;;;28.20;77.20;;;;;;4974675;28;20865;-71
2021/07/14 14:44:29;;;;;;;13.53;13.03;;;28.10;76.50;;;;;;4974521;28;20825;-71
2021/07/14 14:46:56;;;;;;;12.63;12.13;;;27.80;77.60;;;;;;4974706;28;21497;-71
2021/07/14 14:49:23;;;;;;;12.70;12.20;;;27.20;79.60;;;;;;4974519;28;20451;-70
2021/07/14 14:51:49;;;;;;;13.07;12.57;;;27.20;81.00;;;;;;4974332;28;20448;-71
2021/07/14 14:54:16;;;;;;;12.80;12.30;;;27.20;81.80;;;;;;4974573;28;20453;-71
2021/07/14 14:56:43;;;;;;;13.77;13.27;;;28.20;79.10;;;;;;4974235;28;20452;-71
2021/07/14 14:59:10;;;;;;;13.43;12.93;;;28.50;76.70;;;;;;4974170;28;20490;-72
2021/07/14 15:01:38;;;;;;;13.53;13.13;;;29.20;76.80;;;;;;4974141;28;20487;-71
2021/07/14 15:04:06;;;;;;;12.70;12.30;;;29.00;75.20;;;;;;4974253;28;20465;-71
2021/07/14 15:06:32;;;;;;;13.20;12.70;;;27.90;78.00;;;;;;4974263;28;20459;-72
2021/07/14 15:08:59;;;;;;;12.77;12.37;;;27.50;80.20;;;;;;4974290;28;20463;-71
2021/07/14 15:11:26;;;;;;;12.77;12.37;;;27.30;81.10;;;;;;4974172;28;20448;-71
2021/07/14 15:13:52;;;;;;;12.83;12.43;;;27.60;80.80;;;;;;4974209;28;20964;-71
2021/07/14 15:16:19;;;;;;;12.53;12.13;;;27.60;81.00;;;;;;4971031;28;21329;-71
2021/07/14 15:18:52;;;;;;;12.90;12.50;;;27.50;81.10;;;;;;4973994;28;20492;-71
2021/07/14 15:21:19;;;;;;;12.00;11.60;;;27.50;81.40;;;;;;4973812;28;20648;-72
2021/07/14 15:23:50;;;;;;;11.93;11.53;;;27.50;80.10;;;;;;4973777;28;20578;-71
2021/07/14 15:29:01;;;;;;;12.13;11.73;;;27.40;81.60;;;;;;4973968;28;20778;-72
2021/07/14 15:31:27;;;;;;;12.50;12.00;;;27.20;82.80;;;;;;4973578;28;20448;-71
2021/07/14 15:33:57;;;;;;;12.00;11.60;;;26.70;83.50;;;;;;4973628;28;20447;-71
2021/07/14 15:36:24;;;;;;;12.33;11.83;;;26.20;85.30;;;;;;4973406;28;20499;-69
2021/07/14 15:38:51;;;;;;;12.33;11.83;;;26.30;85.20;;;;;;4973470;28;20459;-68
2021/07/14 15:41:18;;;;;;;12.07;11.67;;;26.30;85.30;;;;;;4973500;28;20486;-69
2021/07/14 15:43:44;;;;;;;11.40;11.03;;;26.10;86.20;;;;;;4973583;28;20451;-68
2021/07/14 15:46:11;;;;;;;12.33;11.83;;;25.90;87.90;;;;;;4973015;28;20456;-70
2021/07/14 15:48:38;;;;;;;12.10;11.70;;;25.60;88.60;;;;;;4973179;28;20456;-70
2021/07/14 15:51:06;;;;;;;12.13;11.73;;;25.50;88.60;;;;;;4972309;28;20452;-70
2021/07/14 15:53:33;;;;;;;12.87;12.17;;;25.50;89.40;;;;;;4973389;28;20451;-70
2021/07/14 15:55:59;;;;;;;13.23;12.63;;;25.50;90.10;;;;;;4973158;28;20456;-70
2021/07/14 15:58:26;;;;;;;13.63;13.13;;;25.00;91.50;;;;;;4973152;28;20462;-70
2021/07/14 16:00:54;;;;;;;13.40;12.90;;;24.90;92.30;;;;;;4972969;28;20492;-70
2021/07/14 16:03:21;;;;;;;12.40;11.80;;;25.00;92.60;;;;;;4972849;28;20458;-70